createdAt,value
2019-03-22T00:00:48.423Z,78.16
2019-03-22T00:03:17.772Z,78.25
2019-03-22T00:05:47.100Z,78.30
2019-03-22T00:08:16.436Z,78.36
2019-03-22T00:10:45.765Z,78.46
2019-03-22T00:13:15.094Z,78.63
2019-03-22T00:15:44.745Z,78.62
2019-03-22T00:18:14.074Z,78.73
2019-03-22T00:20:43.410Z,78.93
2019-03-22T00:23:13.066Z,79.02
2019-03-22T00:25:42.398Z,79.16
2019-03-22T00:28:11.973Z,79.23
2019-03-22T00:30:41.386Z,79.24
2019-03-22T00:33:10.709Z,79.33
2019-03-22T00:35:40.042Z,79.42
2019-03-22T00:38:10.341Z,79.59
2019-03-22T00:40:40.031Z,79.61
2019-03-22T00:43:09.593Z,79.73
2019-03-22T00:45:38.931Z,79.86
2019-03-22T00:48:08.534Z,79.99
2019-03-22T00:50:37.866Z,80.04
2019-03-22T00:53:07.188Z,80.28
2019-03-22T00:55:36.517Z,80.38
2019-03-22T00:58:05.847Z,80.28
2019-03-22T01:00:35.182Z,80.35
2019-03-22T01:03:04.514Z,80.55
2019-03-22T01:05:33.873Z,81.00
2019-03-22T01:08:03.437Z,80.92
2019-03-22T01:10:32.770Z,80.85
2019-03-22T01:13:02.102Z,80.84
2019-03-22T01:15:31.767Z,80.79
2019-03-22T01:18:01.173Z,80.76
2019-03-22T01:20:30.508Z,80.89
2019-03-22T01:22:59.852Z,81.07
2019-03-22T01:25:29.190Z,81.02
2019-03-22T01:27:58.592Z,81.02
2019-03-22T01:30:27.940Z,80.99
2019-03-22T01:32:57.263Z,81.07
2019-03-22T01:35:26.605Z,81.05
2019-03-22T01:37:55.939Z,80.97
2019-03-22T01:40:25.279Z,80.97
2019-03-22T01:42:54.613Z,80.95
2019-03-22T01:45:23.953Z,80.95
2019-03-22T01:47:53.284Z,81.06
2019-03-22T01:50:22.631Z,81.15
2019-03-22T01:52:51.961Z,81.15
2019-03-22T01:55:21.345Z,81.10
2019-03-22T01:57:53.593Z,81.13
2019-03-22T02:00:21.724Z,81.17
2019-03-22T02:02:51.059Z,81.26
2019-03-22T02:05:20.765Z,81.30
2019-03-22T02:07:50.105Z,81.34
2019-03-22T02:10:19.692Z,81.44
2019-03-22T02:12:49.280Z,81.45
2019-03-22T02:15:18.685Z,81.60
2019-03-22T02:17:48.017Z,81.65
2019-03-22T02:20:19.017Z,81.59
2019-03-22T02:22:48.346Z,81.59
2019-03-22T02:25:17.676Z,81.60
2019-03-22T02:27:47.009Z,81.66
2019-03-22T02:30:17.782Z,81.72
2019-03-22T02:32:47.181Z,81.69
2019-03-22T02:35:28.498Z,81.76
2019-03-22T02:37:47.546Z,81.91
2019-03-22T02:40:16.908Z,81.94
2019-03-22T02:42:47.562Z,81.91
2019-03-22T02:45:17.369Z,81.88
2019-03-22T02:47:46.700Z,81.98
2019-03-22T02:50:19.017Z,81.95
2019-03-22T02:52:48.037Z,81.96
2019-03-22T02:55:17.654Z,82.10
2019-03-22T02:57:47.005Z,82.19
2019-03-22T03:00:19.542Z,82.22
2019-03-22T03:02:48.863Z,82.23
2019-03-22T03:05:18.263Z,82.36
2019-03-22T03:07:47.604Z,82.37
2019-03-22T03:10:17.782Z,82.40
2019-03-22T03:12:47.173Z,82.38
2019-03-22T03:15:17.544Z,82.39
2019-03-22T03:17:46.974Z,82.50
2019-03-22T03:20:18.031Z,82.54
2019-03-22T03:22:47.535Z,82.55
2019-03-22T03:25:18.014Z,82.65
2019-03-22T03:27:47.690Z,82.73
2019-03-22T03:30:22.984Z,82.77
2019-03-22T03:32:52.329Z,82.83
2019-03-22T03:35:21.651Z,82.91
2019-03-22T03:37:50.988Z,82.89
2019-03-22T03:40:20.342Z,83.05
2019-03-22T03:42:49.683Z,83.04
2019-03-22T03:45:36.034Z,83.09
2019-03-22T03:48:09.845Z,83.21
2019-03-22T03:50:38.427Z,83.31
2019-03-22T03:53:07.935Z,83.35
2019-03-22T03:55:37.351Z,83.31
2019-03-22T03:58:06.909Z,83.25
2019-03-22T04:00:36.250Z,83.34
2019-03-22T04:03:05.749Z,83.52
2019-03-22T04:05:35.069Z,83.55
2019-03-22T04:08:04.749Z,83.60
2019-03-22T04:10:34.080Z,83.54
2019-03-22T04:13:03.775Z,83.57
2019-03-22T04:15:34.094Z,83.57
2019-03-22T04:18:03.412Z,83.61
2019-03-22T04:20:32.739Z,83.49
2019-03-22T04:23:02.070Z,83.46
2019-03-22T04:25:31.404Z,83.45
2019-03-22T04:28:00.735Z,83.46
2019-03-22T04:30:31.339Z,83.60
2019-03-22T04:33:00.676Z,83.63
2019-03-22T04:35:30.005Z,83.74
2019-03-22T04:37:59.364Z,83.82
2019-03-22T04:40:29.733Z,83.91
2019-03-22T04:42:59.061Z,83.72
2019-03-22T04:45:33.468Z,83.81
2019-03-22T04:48:08.770Z,83.68
2019-03-22T04:50:41.158Z,83.59
2019-03-22T04:53:13.795Z,83.52
2019-03-22T04:55:45.955Z,83.67
2019-03-22T04:58:17.714Z,83.74
2019-03-22T05:00:47.986Z,83.72
2019-03-22T05:03:18.670Z,83.67
2019-03-22T05:05:49.541Z,83.74
2019-03-22T05:08:20.611Z,83.75
2019-03-22T05:10:50.479Z,83.65
2019-03-22T05:13:21.426Z,83.70
2019-03-22T05:15:51.230Z,83.74
2019-03-22T05:18:21.002Z,83.78
2019-03-22T05:20:52.275Z,83.86
2019-03-22T05:23:23.708Z,83.81
2019-03-22T05:25:56.102Z,83.76
2019-03-22T05:28:28.075Z,83.73
2019-03-22T05:31:11.988Z,83.71
2019-03-22T05:33:41.321Z,83.77
2019-03-22T05:36:10.654Z,83.92
2019-03-22T05:38:39.985Z,83.97
2019-03-22T05:41:09.339Z,83.96
2019-03-22T05:43:38.665Z,83.98
2019-03-22T05:46:08.010Z,84.07
2019-03-22T05:48:37.330Z,84.00
2019-03-22T05:51:06.698Z,84.16
2019-03-22T05:53:35.995Z,84.19
2019-03-22T05:56:08.026Z,84.26
2019-03-22T05:58:37.347Z,84.22
2019-03-22T06:01:07.006Z,84.30
2019-03-22T06:03:36.333Z,84.37
2019-03-22T06:06:05.671Z,84.54
2019-03-22T06:08:34.997Z,84.56
2019-03-22T06:11:04.739Z,84.65
2019-03-22T06:13:34.065Z,84.90
2019-03-22T06:16:04.480Z,85.07
2019-03-22T06:18:33.805Z,85.13
2019-03-22T06:21:03.142Z,85.13
2019-03-22T06:23:32.471Z,85.16
2019-03-22T06:26:01.968Z,85.30
2019-03-22T06:28:31.296Z,85.41
2019-03-22T06:31:00.902Z,85.62
2019-03-22T06:33:30.229Z,85.75
2019-03-22T06:35:59.574Z,85.82
2019-03-22T06:38:28.902Z,85.92
2019-03-22T06:40:58.242Z,86.08
2019-03-22T06:43:27.638Z,86.19
2019-03-22T06:45:56.967Z,86.24
2019-03-22T06:48:26.598Z,86.19
2019-03-22T06:50:56.212Z,86.12
2019-03-22T06:53:25.541Z,86.15
2019-03-22T06:55:54.875Z,86.19
2019-03-22T06:58:24.524Z,86.20
2019-03-22T07:00:55.166Z,86.06
2019-03-22T07:03:24.494Z,86.05
2019-03-22T07:05:53.827Z,86.02
2019-03-22T07:08:23.169Z,85.98
2019-03-22T07:10:52.770Z,86.02
2019-03-22T07:13:23.407Z,85.94
2019-03-22T07:15:52.734Z,85.98
2019-03-22T07:18:22.068Z,85.89
2019-03-22T07:20:51.409Z,86.01
2019-03-22T07:23:21.019Z,86.09
2019-03-22T07:25:50.631Z,86.18
2019-03-22T07:28:19.962Z,86.13
2019-03-22T07:30:49.297Z,86.11
2019-03-22T07:33:18.636Z,86.13
2019-03-22T07:35:47.967Z,86.17
2019-03-22T07:38:17.302Z,86.10
2019-03-22T07:40:46.637Z,86.11
2019-03-22T07:43:15.979Z,86.09
2019-03-22T07:45:45.651Z,86.11
2019-03-22T07:48:14.998Z,86.17
2019-03-22T07:50:44.331Z,86.01
2019-03-22T07:53:13.668Z,85.93
2019-03-22T07:55:43.000Z,85.81
2019-03-22T07:58:12.564Z,85.77
2019-03-22T08:00:41.893Z,85.74
2019-03-22T08:03:11.236Z,85.66
2019-03-22T08:05:50.969Z,85.62
2019-03-22T08:08:11.913Z,85.89
2019-03-22T08:10:41.273Z,85.34
2019-03-22T08:13:10.594Z,84.93
2019-03-22T08:15:39.924Z,84.43
2019-03-22T08:18:09.326Z,83.87
2019-03-22T08:20:39.043Z,83.38
2019-03-22T08:23:22.619Z,82.99
2019-03-22T08:25:51.947Z,82.67
2019-03-22T08:28:21.295Z,81.23
2019-03-22T08:30:50.690Z,80.84
2019-03-22T08:33:20.049Z,80.18
2019-03-22T08:35:49.376Z,80.04
2019-03-22T08:38:18.736Z,78.77
2019-03-22T08:40:48.032Z,77.90
2019-03-22T08:43:17.390Z,78.21
2019-03-22T08:45:46.703Z,77.77
2019-03-22T08:48:16.032Z,76.98
2019-03-22T08:50:45.362Z,76.47
2019-03-22T08:53:16.060Z,76.72
2019-03-22T08:55:45.367Z,76.20
2019-03-22T08:58:14.699Z,75.57
2019-03-22T09:00:56.613Z,75.14
2019-03-22T09:03:15.388Z,73.28
2019-03-22T09:05:44.723Z,72.56
2019-03-22T09:08:16.110Z,73.17
2019-03-22T09:10:45.131Z,73.63
2019-03-22T09:13:14.442Z,73.44
2019-03-22T09:15:43.843Z,72.80
2019-03-22T09:18:15.437Z,71.53
2019-03-22T09:20:44.218Z,70.95
2019-03-22T09:23:13.573Z,69.38
2019-03-22T09:25:42.911Z,69.24
2019-03-22T09:28:12.223Z,68.54
2019-03-22T09:30:41.623Z,66.70
2019-03-22T09:33:13.338Z,65.63
2019-03-22T09:35:41.983Z,65.41
2019-03-22T09:38:13.035Z,64.36
2019-03-22T09:40:42.678Z,64.76
2019-03-22T09:43:12.087Z,64.14
2019-03-22T09:45:41.422Z,63.31
2019-03-22T09:48:10.815Z,61.12
2019-03-22T09:50:40.165Z,61.54
2019-03-22T09:53:09.555Z,60.33
2019-03-22T09:55:38.889Z,60.60
2019-03-22T09:58:08.177Z,59.58
2019-03-22T10:00:37.531Z,59.68
2019-03-22T10:03:06.860Z,58.70
2019-03-22T10:05:36.227Z,56.53
2019-03-22T10:08:05.847Z,58.24
2019-03-22T10:10:35.195Z,55.21
2019-03-22T10:13:04.503Z,56.43
2019-03-22T10:15:33.912Z,54.25
2019-03-22T10:18:03.251Z,55.91
2019-03-22T10:20:32.592Z,56.20
2019-03-22T10:23:01.979Z,56.75
2019-03-22T10:25:31.276Z,56.40
2019-03-22T10:28:00.613Z,57.59
2019-03-22T10:30:30.628Z,57.00
2019-03-22T10:32:59.964Z,55.05
2019-03-22T10:35:29.316Z,56.18
2019-03-22T10:38:00.851Z,55.36
2019-03-22T10:40:29.703Z,55.62
2019-03-22T10:42:59.108Z,53.90
2019-03-22T10:45:28.410Z,53.52
2019-03-22T10:47:57.718Z,52.76
2019-03-22T10:50:27.096Z,51.79
2019-03-22T10:52:56.414Z,52.57
2019-03-22T10:55:30.456Z,53.05
2019-03-22T10:57:56.772Z,48.49
2019-03-22T11:00:26.109Z,50.62
2019-03-22T11:02:55.445Z,50.47
2019-03-22T11:05:24.787Z,50.11
2019-03-22T11:07:54.124Z,49.41
2019-03-22T11:10:23.462Z,48.38
2019-03-22T11:12:52.800Z,48.53
2019-03-22T11:15:23.925Z,47.18
2019-03-22T11:17:53.430Z,46.02
2019-03-22T11:20:22.758Z,45.82
2019-03-22T11:22:52.093Z,43.83
2019-03-22T11:25:21.429Z,40.98
2019-03-22T11:27:50.758Z,41.10
2019-03-22T11:30:20.234Z,37.02
2019-03-22T11:32:49.569Z,34.18
2019-03-22T11:35:18.896Z,31.61
2019-03-22T11:37:48.300Z,31.55
2019-03-22T11:40:18.373Z,33.09
2019-03-22T11:42:47.769Z,33.05
2019-03-22T11:45:24.679Z,31.66
2019-03-22T11:47:54.145Z,27.22
2019-03-22T11:50:23.495Z,30.08
2019-03-22T11:52:52.889Z,29.59
2019-03-22T11:55:22.331Z,28.96
2019-03-22T11:57:52.116Z,27.23
2019-03-22T12:00:24.384Z,26.44
2019-03-22T12:02:54.038Z,23.68
2019-03-22T12:05:23.571Z,22.71
2019-03-22T12:07:54.528Z,23.26
2019-03-22T12:10:24.123Z,22.25
2019-03-22T12:12:53.524Z,21.46
2019-03-22T12:15:23.802Z,22.91
2019-03-22T12:17:53.206Z,20.89
2019-03-22T12:20:23.688Z,22.14
2019-03-22T12:22:53.497Z,22.79
2019-03-22T12:25:25.247Z,21.37
2019-03-22T12:27:54.572Z,19.94
2019-03-22T12:30:23.910Z,21.32
2019-03-22T12:32:53.308Z,20.90
2019-03-22T12:35:22.650Z,20.59
2019-03-22T12:37:52.014Z,19.12
2019-03-22T12:40:22.954Z,19.68
2019-03-22T12:42:52.356Z,20.43
2019-03-22T12:45:30.070Z,19.50
2019-03-22T12:47:59.403Z,18.83
2019-03-22T12:50:28.804Z,19.81
2019-03-22T12:52:58.134Z,16.85
2019-03-22T12:55:27.474Z,18.06
2019-03-22T12:57:56.804Z,17.48
2019-03-22T13:00:26.768Z,18.69
2019-03-22T13:02:56.163Z,19.01
2019-03-22T13:05:25.506Z,18.66
2019-03-22T13:07:54.832Z,17.28
2019-03-22T13:10:26.113Z,17.36
2019-03-22T13:12:55.847Z,16.75
2019-03-22T13:15:25.418Z,18.45
2019-03-22T13:17:54.746Z,18.15
2019-03-22T13:20:24.078Z,18.37
2019-03-22T13:22:53.406Z,17.54
2019-03-22T13:25:22.740Z,16.15
2019-03-22T13:27:52.095Z,17.53
2019-03-22T13:30:29.969Z,17.50
2019-03-22T13:32:59.471Z,17.59
2019-03-22T13:35:28.800Z,18.32
2019-03-22T13:37:58.438Z,16.81
2019-03-22T13:40:27.764Z,16.78
2019-03-22T13:42:57.099Z,16.27
2019-03-22T13:45:26.759Z,15.71
2019-03-22T13:47:56.220Z,15.79
2019-03-22T13:50:25.552Z,17.16
2019-03-22T13:52:55.029Z,14.78
2019-03-22T13:55:24.377Z,15.66
2019-03-22T13:57:53.700Z,15.30
2019-03-22T14:00:23.032Z,16.29
2019-03-22T14:03:02.120Z,17.18
2019-03-22T14:05:23.805Z,17.08
2019-03-22T14:07:53.190Z,16.41
2019-03-22T14:10:30.050Z,17.18
2019-03-22T14:13:01.021Z,15.59
2019-03-22T14:15:30.662Z,15.94
2019-03-22T14:18:00.436Z,16.63
2019-03-22T14:20:30.496Z,15.94
2019-03-22T14:22:59.840Z,14.63
2019-03-22T14:25:29.238Z,15.37
2019-03-22T14:27:58.737Z,16.13
2019-03-22T14:30:28.137Z,16.36
2019-03-22T14:32:57.480Z,16.13
2019-03-22T14:35:28.508Z,16.29
2019-03-22T14:37:57.912Z,15.77
2019-03-22T14:40:27.236Z,15.89
2019-03-22T14:42:56.579Z,16.88
2019-03-22T14:45:26.028Z,17.25
2019-03-22T14:47:55.292Z,16.52
2019-03-22T14:50:24.622Z,16.35
2019-03-22T14:52:53.947Z,17.72
2019-03-22T14:55:23.320Z,18.21
2019-03-22T14:57:52.993Z,18.75
2019-03-22T15:00:22.348Z,18.73
2019-03-22T15:02:51.983Z,19.48
2019-03-22T15:05:21.313Z,18.26
2019-03-22T15:07:50.634Z,20.07
2019-03-22T15:10:19.961Z,19.71
2019-03-22T15:12:49.288Z,17.17
2019-03-22T15:15:20.268Z,17.17
2019-03-22T15:17:51.238Z,15.39
2019-03-22T15:20:22.438Z,15.10
2019-03-22T15:22:53.396Z,15.75
2019-03-22T15:25:40.496Z,17.43
2019-03-22T15:28:11.460Z,15.75
2019-03-22T15:30:58.436Z,15.21
2019-03-22T15:33:38.549Z,15.62
2019-03-22T15:36:18.487Z,16.92
2019-03-22T15:38:55.721Z,18.49
2019-03-22T15:41:25.200Z,17.19
2019-03-22T15:43:54.582Z,17.59
2019-03-22T15:46:23.874Z,18.66
2019-03-22T15:48:53.201Z,18.37
2019-03-22T15:51:22.532Z,18.22
2019-03-22T15:53:51.860Z,18.10
2019-03-22T15:56:21.188Z,21.50
2019-03-22T15:58:50.507Z,18.54
2019-03-22T16:01:19.841Z,22.46
2019-03-22T16:03:49.180Z,23.09
2019-03-22T16:06:18.513Z,20.28
2019-03-22T16:08:47.920Z,23.05
2019-03-22T16:11:17.196Z,22.47
2019-03-22T16:13:46.521Z,23.23
2019-03-22T16:16:15.851Z,23.57
2019-03-22T16:18:45.183Z,21.14
2019-03-22T16:21:14.571Z,21.84
2019-03-22T16:23:43.897Z,24.74
2019-03-22T16:26:13.268Z,24.11
2019-03-22T16:28:42.598Z,21.44
2019-03-22T16:31:11.929Z,21.39
2019-03-22T16:33:41.259Z,21.91
2019-03-22T16:36:11.656Z,21.89
2019-03-22T16:38:40.988Z,22.52
2019-03-22T16:41:10.326Z,23.03
2019-03-22T16:43:39.656Z,22.49
2019-03-22T16:46:09.325Z,23.44
2019-03-22T16:48:38.661Z,26.97
2019-03-22T16:51:08.050Z,28.01
2019-03-22T16:53:37.649Z,24.10
2019-03-22T16:56:06.974Z,23.32
2019-03-22T16:58:36.303Z,23.63
2019-03-22T17:01:06.670Z,24.43
2019-03-22T17:03:36.005Z,24.08
2019-03-22T17:06:05.399Z,26.43
2019-03-22T17:08:34.719Z,25.01
2019-03-22T17:11:04.046Z,26.51
2019-03-22T17:13:33.374Z,25.45
2019-03-22T17:16:02.707Z,25.74
2019-03-22T17:18:32.038Z,25.78
2019-03-22T17:21:01.459Z,27.27
2019-03-22T17:23:30.750Z,26.46
2019-03-22T17:26:00.081Z,27.18
2019-03-22T17:28:29.400Z,26.59
2019-03-22T17:30:58.719Z,27.09
2019-03-22T17:33:28.052Z,28.48
2019-03-22T17:35:57.370Z,26.98
2019-03-22T17:38:26.702Z,27.28
2019-03-22T17:40:56.025Z,28.59
2019-03-22T17:43:25.361Z,28.51
2019-03-22T17:45:54.694Z,28.37
2019-03-22T17:48:24.020Z,30.15
2019-03-22T17:50:53.345Z,30.06
2019-03-22T17:53:22.682Z,32.29
2019-03-22T17:55:52.013Z,32.81
2019-03-22T17:58:21.347Z,33.37
2019-03-22T18:00:50.831Z,33.82
2019-03-22T18:03:20.159Z,34.40
2019-03-22T18:05:49.487Z,34.28
2019-03-22T18:08:18.826Z,34.86
2019-03-22T18:10:48.149Z,35.71
2019-03-22T18:13:17.481Z,35.37
2019-03-22T18:15:46.807Z,35.49
2019-03-22T18:18:16.155Z,35.72
2019-03-22T18:20:45.471Z,35.88
2019-03-22T18:23:14.811Z,35.56
2019-03-22T18:25:44.135Z,36.19
2019-03-22T18:28:13.466Z,36.31
2019-03-22T18:30:42.792Z,36.46
2019-03-22T18:33:12.121Z,36.73
2019-03-22T18:35:41.453Z,36.64
2019-03-22T18:38:11.750Z,37.00
2019-03-22T18:40:41.077Z,37.64
2019-03-22T18:43:10.397Z,37.79
2019-03-22T18:45:39.721Z,38.02
2019-03-22T18:48:09.096Z,38.00
2019-03-22T18:50:38.693Z,38.80
2019-03-22T18:53:08.021Z,39.15
2019-03-22T18:55:37.358Z,39.40
2019-03-22T18:58:06.713Z,40.33
2019-03-22T19:00:36.067Z,41.05
2019-03-22T19:03:05.424Z,41.33
2019-03-22T19:05:34.764Z,41.86
2019-03-22T19:08:04.328Z,42.16
2019-03-22T19:10:33.668Z,42.77
2019-03-22T19:13:02.988Z,43.13
2019-03-22T19:15:32.322Z,43.77
2019-03-22T19:18:01.653Z,44.42
2019-03-22T19:20:30.981Z,44.79
2019-03-22T19:23:00.309Z,45.20
2019-03-22T19:25:29.648Z,45.64
2019-03-22T19:27:59.540Z,46.00
2019-03-22T19:30:28.865Z,46.19
2019-03-22T19:32:58.194Z,46.44
2019-03-22T19:35:27.530Z,46.99
2019-03-22T19:37:56.864Z,47.40
2019-03-22T19:40:26.194Z,47.60
2019-03-22T19:42:55.516Z,47.84
2019-03-22T19:45:24.845Z,48.31
2019-03-22T19:47:54.269Z,48.91
2019-03-22T19:50:23.602Z,49.09
2019-03-22T19:52:52.927Z,49.57
2019-03-22T19:55:22.271Z,49.97
2019-03-22T19:57:51.618Z,50.44
2019-03-22T20:00:21.001Z,50.81
2019-03-22T20:02:50.578Z,51.42
2019-03-22T20:05:35.218Z,51.58
2019-03-22T20:08:04.793Z,51.62
2019-03-22T20:10:34.131Z,51.90
2019-03-22T20:13:03.458Z,52.35
2019-03-22T20:15:33.768Z,52.65
2019-03-22T20:18:03.104Z,53.16
2019-03-22T20:20:32.464Z,53.47
2019-03-22T20:23:01.794Z,53.70
2019-03-22T20:25:31.127Z,53.85
2019-03-22T20:28:00.467Z,54.19
2019-03-22T20:30:29.803Z,54.46
2019-03-22T20:32:59.133Z,54.63
2019-03-22T20:35:28.466Z,54.72
2019-03-22T20:37:57.800Z,54.96
2019-03-22T20:40:27.128Z,55.06
2019-03-22T20:42:56.465Z,55.16
2019-03-22T20:45:25.797Z,55.27
2019-03-22T20:47:55.138Z,55.56
2019-03-22T20:50:35.135Z,55.82
2019-03-22T20:52:55.500Z,56.22
2019-03-22T20:55:24.834Z,56.52
2019-03-22T20:57:54.460Z,56.78
2019-03-22T21:00:23.788Z,57.07
2019-03-22T21:02:53.118Z,57.35
2019-03-22T21:05:26.828Z,57.73
2019-03-22T21:07:53.478Z,57.93
2019-03-22T21:10:23.114Z,58.28
2019-03-22T21:12:52.457Z,58.53
2019-03-22T21:15:24.707Z,58.71
2019-03-22T21:17:52.821Z,59.07
2019-03-22T21:20:22.157Z,58.80
2019-03-22T21:22:51.485Z,57.60
2019-03-22T21:25:20.818Z,56.75
2019-03-22T21:27:50.480Z,57.20
2019-03-22T21:30:20.687Z,57.30
2019-03-22T21:32:50.898Z,57.58
2019-03-22T21:35:22.697Z,57.85
2019-03-22T21:37:51.691Z,58.12
2019-03-22T21:40:21.303Z,58.37
2019-03-22T21:42:50.649Z,58.65
2019-03-22T21:45:19.991Z,58.75
2019-03-22T21:47:49.311Z,58.85
2019-03-22T21:50:18.642Z,59.02
2019-03-22T21:52:48.306Z,59.33
2019-03-22T21:55:17.660Z,59.43
2019-03-22T21:57:47.003Z,59.69
2019-03-22T22:00:16.619Z,59.81
2019-03-22T22:02:46.027Z,59.98
2019-03-22T22:05:15.362Z,60.21
2019-03-22T22:07:44.853Z,60.37
2019-03-22T22:10:14.258Z,60.51
2019-03-22T22:12:43.591Z,60.68
2019-03-22T22:15:12.920Z,60.92
2019-03-22T22:17:42.524Z,61.13
2019-03-22T22:20:12.106Z,61.52
2019-03-22T22:22:41.449Z,61.66
2019-03-22T22:25:10.780Z,61.90
2019-03-22T22:27:40.115Z,61.98
2019-03-22T22:30:13.678Z,62.12
2019-03-22T22:32:43.010Z,62.27
2019-03-22T22:35:12.419Z,62.15
2019-03-22T22:37:41.755Z,61.01
2019-03-22T22:40:12.333Z,59.56
2019-03-22T22:42:41.907Z,58.33
2019-03-22T22:45:11.990Z,56.83
2019-03-22T22:47:41.323Z,56.64
2019-03-22T22:50:11.898Z,56.47
2019-03-22T22:52:41.224Z,56.05
2019-03-22T22:55:11.804Z,55.97
2019-03-22T22:57:41.134Z,55.52
2019-03-22T23:00:17.277Z,55.25
2019-03-22T23:02:48.304Z,55.15
2019-03-22T23:05:17.647Z,55.13
2019-03-22T23:07:46.981Z,55.08
2019-03-22T23:10:16.326Z,54.97
2019-03-22T23:12:45.661Z,55.18
2019-03-22T23:15:15.372Z,55.09
2019-03-22T23:17:45.027Z,55.09
2019-03-22T23:20:14.451Z,55.25
2019-03-22T23:22:43.784Z,55.29
2019-03-22T23:25:13.116Z,55.65
2019-03-22T23:27:42.457Z,55.68
2019-03-22T23:30:12.932Z,55.59
2019-03-22T23:32:42.575Z,55.58
2019-03-22T23:35:12.054Z,56.01
2019-03-22T23:37:41.386Z,56.21
2019-03-22T23:40:12.177Z,56.10
2019-03-22T23:42:41.519Z,56.13
2019-03-22T23:45:11.557Z,56.10
2019-03-22T23:47:41.145Z,56.10
2019-03-22T23:50:12.056Z,56.38
2019-03-22T23:52:41.395Z,56.64
2019-03-22T23:55:10.871Z,57.09
2019-03-22T23:57:40.203Z,57.36
